createdAt,value
2022-08-26T00:00:11.949Z,29.46
2022-08-26T00:00:34.356Z,29.01
2022-08-26T00:00:58.407Z,29.40
2022-08-26T00:01:28.978Z,29.40
2022-08-26T00:01:52.516Z,29.21
2022-08-26T00:02:15.957Z,29.33
2022-08-26T00:02:41.116Z,29.30
2022-08-26T00:03:04.263Z,29.18
2022-08-26T00:03:29.157Z,29.24
2022-08-26T00:03:51.070Z,29.12
2022-08-26T00:04:13.017Z,28.89
2022-08-26T00:04:35.762Z,28.88
2022-08-26T00:04:57.452Z,29.29
2022-08-26T00:05:19.327Z,29.01
2022-08-26T00:05:42.259Z,29.17
2022-08-26T00:06:05.298Z,29.37
2022-08-26T00:06:27.497Z,29.42
2022-08-26T00:06:49.146Z,29.73
2022-08-26T00:07:13.159Z,29.34
2022-08-26T00:07:34.840Z,29.40
2022-08-26T00:07:57.223Z,29.54
2022-08-26T00:08:21.188Z,29.22
2022-08-26T00:08:44.698Z,29.34
2022-08-26T00:09:09.044Z,29.66
2022-08-26T00:09:31.450Z,29.54
2022-08-26T00:09:54.453Z,29.58
2022-08-26T00:10:18.689Z,29.63
2022-08-26T00:10:40.861Z,29.52
2022-08-26T00:11:04.489Z,30.02
2022-08-26T00:11:27.200Z,29.73
2022-08-26T00:11:49.272Z,29.68
2022-08-26T00:12:13.806Z,30.11
2022-08-26T00:12:37.505Z,30.43
2022-08-26T00:12:59.513Z,30.17
2022-08-26T00:13:21.243Z,30.79
2022-08-26T00:13:48.110Z,30.54
2022-08-26T00:14:11.750Z,30.07
2022-08-26T00:14:33.485Z,30.40
2022-08-26T00:14:55.144Z,30.63
2022-08-26T00:15:21.237Z,30.46
2022-08-26T00:15:43.054Z,30.09
2022-08-26T00:16:06.897Z,30.54
2022-08-26T00:16:31.236Z,30.59
2022-08-26T00:16:53.032Z,30.75
2022-08-26T00:17:17.031Z,30.68
2022-08-26T00:17:40.248Z,30.75
2022-08-26T00:18:03.138Z,30.19
2022-08-26T00:18:40.809Z,30.84
2022-08-26T00:19:02.645Z,31.18
2022-08-26T00:19:25.371Z,30.79
2022-08-26T00:19:47.097Z,30.65
2022-08-26T00:20:10.930Z,30.51
2022-08-26T00:20:34.057Z,30.97
2022-08-26T00:20:56.968Z,30.89
2022-08-26T00:21:19.004Z,30.77
2022-08-26T00:21:40.637Z,31.57
2022-08-26T00:22:02.384Z,31.33
2022-08-26T00:22:26.413Z,31.10
2022-08-26T00:22:49.399Z,31.41
2022-08-26T00:23:11.447Z,31.90
2022-08-26T00:23:33.421Z,31.28
2022-08-26T00:23:56.130Z,31.73
2022-08-26T00:24:19.375Z,31.79
2022-08-26T00:24:41.178Z,31.84
2022-08-26T00:25:10.812Z,31.83
2022-08-26T00:25:32.788Z,32.09
2022-08-26T00:25:55.769Z,32.02
2022-08-26T00:26:18.847Z,32.66
2022-08-26T00:26:42.703Z,32.40
2022-08-26T00:27:06.298Z,32.46
2022-08-26T00:27:28.198Z,33.12
2022-08-26T00:27:50.428Z,33.38
2022-08-26T00:28:14.981Z,33.57
2022-08-26T00:28:41.277Z,33.58
2022-08-26T00:29:03.866Z,33.17
2022-08-26T00:29:26.951Z,33.72
2022-08-26T00:29:48.612Z,33.66
2022-08-26T00:30:15.195Z,33.77
2022-08-26T00:30:37.462Z,34.22
2022-08-26T00:30:59.517Z,34.26
2022-08-26T00:32:06.487Z,34.50
2022-08-26T00:32:28.503Z,34.52
2022-08-26T00:32:50.473Z,34.58
2022-08-26T00:33:12.179Z,34.34
2022-08-26T00:33:35.029Z,34.89
2022-08-26T00:33:56.724Z,35.07
2022-08-26T00:34:19.631Z,34.87
2022-08-26T00:34:41.636Z,34.48
2022-08-26T00:35:04.530Z,34.77
2022-08-26T00:35:28.642Z,34.93
2022-08-26T00:35:50.635Z,35.16
2022-08-26T00:36:19.947Z,35.08
2022-08-26T00:36:42.728Z,35.14
2022-08-26T00:37:08.940Z,35.15
2022-08-26T00:37:36.476Z,34.96
2022-08-26T00:37:58.923Z,35.39
2022-08-26T00:38:22.122Z,35.16
2022-08-26T00:38:45.704Z,35.41
2022-08-26T00:39:08.603Z,35.90
2022-08-26T00:39:30.938Z,35.44
2022-08-26T00:39:52.736Z,35.32
2022-08-26T00:40:18.547Z,35.61
2022-08-26T00:40:46.136Z,36.12
2022-08-26T00:41:07.841Z,36.28
2022-08-26T00:41:29.995Z,36.51
2022-08-26T00:41:51.773Z,36.24
2022-08-26T00:42:13.785Z,35.80
2022-08-26T00:42:36.676Z,35.78
2022-08-26T00:43:00.453Z,36.15
2022-08-26T00:43:23.831Z,36.25
2022-08-26T00:43:47.216Z,36.45
2022-08-26T00:44:11.659Z,36.02
2022-08-26T00:44:33.546Z,35.96
2022-08-26T00:44:55.444Z,36.06
2022-08-26T00:45:17.464Z,36.32
2022-08-26T00:45:44.709Z,36.42
2022-08-26T00:46:11.034Z,36.45
2022-08-26T00:46:37.134Z,36.86
2022-08-26T00:47:04.547Z,36.92
2022-08-26T00:47:32.032Z,36.80
2022-08-26T00:47:57.485Z,37.00
2022-08-26T00:48:22.764Z,37.15
2022-08-26T00:48:49.282Z,37.21
2022-08-26T00:49:15.950Z,37.42
2022-08-26T00:49:41.025Z,37.28
2022-08-26T00:50:09.365Z,36.96
2022-08-26T00:50:37.002Z,37.32
2022-08-26T00:51:04.298Z,37.92
2022-08-26T00:51:29.749Z,38.00
2022-08-26T00:51:55.541Z,37.83
2022-08-26T00:52:21.676Z,37.51
2022-08-26T00:52:46.544Z,37.85
2022-08-26T00:53:21.510Z,38.21
2022-08-26T00:53:51.589Z,38.13
2022-08-26T00:54:14.066Z,38.11
2022-08-26T00:54:45.121Z,38.46
2022-08-26T00:55:11.740Z,38.40
2022-08-26T00:55:42.998Z,38.45
2022-08-26T00:56:10.032Z,38.64
2022-08-26T00:56:38.210Z,39.20
2022-08-26T00:57:03.193Z,38.99
2022-08-26T00:57:26.475Z,38.74
2022-08-26T00:57:50.337Z,38.86
2022-08-26T00:58:12.067Z,39.07
2022-08-26T00:58:35.657Z,38.89
2022-08-26T00:59:01.373Z,39.22
2022-08-26T00:59:24.484Z,39.05
2022-08-26T00:59:50.702Z,39.18
2022-08-26T01:00:17.523Z,39.18
2022-08-26T01:00:39.261Z,39.06
2022-08-26T01:01:01.191Z,39.43
2022-08-26T01:01:23.329Z,40.02
2022-08-26T01:01:46.485Z,39.85
2022-08-26T01:02:20.888Z,40.15
2022-08-26T01:02:46.729Z,40.21
2022-08-26T01:03:11.565Z,40.14
2022-08-26T01:03:36.284Z,39.91
2022-08-26T01:03:58.970Z,40.34
2022-08-26T01:04:23.182Z,40.01
2022-08-26T01:04:46.929Z,40.15
2022-08-26T01:05:11.980Z,40.08
2022-08-26T01:05:33.846Z,39.93
2022-08-26T01:05:59.812Z,39.77
2022-08-26T01:06:22.371Z,40.26
2022-08-26T01:06:48.613Z,40.32
2022-08-26T01:07:10.590Z,40.13
2022-08-26T01:07:34.735Z,40.20
2022-08-26T01:07:58.230Z,40.02
2022-08-26T01:08:21.527Z,40.18
2022-08-26T01:08:46.254Z,40.22
2022-08-26T01:09:08.185Z,40.21
2022-08-26T01:09:31.616Z,40.49
2022-08-26T01:09:53.724Z,40.63
2022-08-26T01:10:19.774Z,40.31
2022-08-26T01:10:43.187Z,40.44
2022-08-26T01:11:06.356Z,40.57
2022-08-26T01:11:30.023Z,40.79
2022-08-26T01:11:56.039Z,40.57
2022-08-26T01:12:21.995Z,40.68
2022-08-26T01:12:48.863Z,40.58
2022-08-26T01:13:12.511Z,40.95
2022-08-26T01:13:37.807Z,41.01
2022-08-26T01:14:02.723Z,40.42
2022-08-26T01:14:29.861Z,40.92
2022-08-26T01:14:53.154Z,40.94
2022-08-26T01:15:19.773Z,40.95
2022-08-26T01:15:45.170Z,40.95
2022-08-26T01:16:11.274Z,40.93
2022-08-26T01:16:35.300Z,40.89
2022-08-26T01:16:57.333Z,41.20
2022-08-26T01:17:20.269Z,40.63
2022-08-26T01:17:42.137Z,41.07
2022-08-26T01:18:08.633Z,40.95
2022-08-26T01:18:31.517Z,40.78
2022-08-26T01:18:58.531Z,40.92
2022-08-26T01:19:24.959Z,41.24
2022-08-26T01:19:52.255Z,41.17
2022-08-26T01:20:25.747Z,41.40
2022-08-26T01:20:58.021Z,41.63
2022-08-26T01:21:29.548Z,41.24
2022-08-26T01:21:57.888Z,41.09
2022-08-26T01:22:28.118Z,41.49
2022-08-26T01:22:56.524Z,41.71
2022-08-26T01:23:19.297Z,41.72
2022-08-26T01:23:47.801Z,41.43
2022-08-26T01:24:10.629Z,41.42
2022-08-26T01:24:32.558Z,41.34
2022-08-26T01:24:55.545Z,41.26
2022-08-26T01:25:19.438Z,41.40
2022-08-26T01:25:46.847Z,41.43
2022-08-26T01:26:19.803Z,41.21
2022-08-26T01:26:44.720Z,41.29
2022-08-26T01:27:09.689Z,41.30
2022-08-26T01:27:32.973Z,41.20
2022-08-26T01:27:57.949Z,41.06
2022-08-26T01:28:23.992Z,41.54
2022-08-26T01:28:50.671Z,41.89
2022-08-26T01:29:18.884Z,41.31
2022-08-26T01:29:45.379Z,41.58
2022-08-26T01:30:08.229Z,41.74
2022-08-26T01:30:31.263Z,41.78
2022-08-26T01:30:55.144Z,41.78
2022-08-26T01:31:21.692Z,41.75
2022-08-26T01:31:47.170Z,41.80
2022-08-26T01:32:11.617Z,41.67
2022-08-26T01:32:36.190Z,41.83
2022-08-26T01:33:05.016Z,41.96
2022-08-26T01:33:31.501Z,41.72
2022-08-26T01:34:10.854Z,41.86
2022-08-26T01:34:36.866Z,41.55
2022-08-26T01:35:00.821Z,41.67
2022-08-26T01:35:23.057Z,41.83
2022-08-26T01:35:45.471Z,41.77
2022-08-26T01:36:09.201Z,41.57
2022-08-26T01:36:31.262Z,41.68
2022-08-26T01:36:58.680Z,42.07
2022-08-26T01:37:24.855Z,41.55
2022-08-26T01:37:49.531Z,41.89
2022-08-26T01:38:13.698Z,41.91
2022-08-26T01:38:35.555Z,41.91
2022-08-26T01:38:58.617Z,42.30
2022-08-26T01:39:20.916Z,42.03
2022-08-26T01:39:46.802Z,42.19
2022-08-26T01:40:14.355Z,41.88
2022-08-26T01:40:43.865Z,42.18
2022-08-26T01:41:16.188Z,42.18
2022-08-26T01:41:44.040Z,42.05
2022-08-26T01:42:11.001Z,42.04
2022-08-26T01:42:34.480Z,42.12
2022-08-26T01:42:56.453Z,42.06
2022-08-26T01:43:22.478Z,42.22
2022-08-26T01:43:47.429Z,42.26
2022-08-26T01:44:15.763Z,42.48
2022-08-26T01:44:42.184Z,42.41
2022-08-26T01:45:11.175Z,42.34
2022-08-26T01:45:36.152Z,42.60
2022-08-26T01:45:58.371Z,42.11
2022-08-26T01:46:23.931Z,42.50
2022-08-26T01:46:48.930Z,42.22
2022-08-26T01:47:13.667Z,42.66
2022-08-26T01:47:36.466Z,42.62
2022-08-26T01:48:02.796Z,42.63
2022-08-26T01:48:28.367Z,43.19
2022-08-26T01:48:54.357Z,42.68
2022-08-26T01:49:18.013Z,42.88
2022-08-26T01:49:41.159Z,42.97
2022-08-26T01:50:07.649Z,43.19
2022-08-26T01:50:33.332Z,42.62
2022-08-26T01:50:56.351Z,42.77
2022-08-26T01:51:20.274Z,42.97
2022-08-26T01:51:44.332Z,42.86
2022-08-26T01:52:08.456Z,42.83
2022-08-26T01:52:35.795Z,42.84
2022-08-26T01:53:01.190Z,42.73
2022-08-26T01:53:25.403Z,42.90
2022-08-26T01:53:47.437Z,43.21
2022-08-26T01:54:11.987Z,42.79
2022-08-26T01:54:36.053Z,43.14
2022-08-26T01:54:59.801Z,43.20
2022-08-26T01:55:29.330Z,42.95
2022-08-26T01:55:59.463Z,43.08
2022-08-26T01:56:22.159Z,43.08
2022-08-26T01:56:45.684Z,43.50
2022-08-26T01:57:08.939Z,43.10
2022-08-26T01:57:31.656Z,43.09
2022-08-26T01:57:56.378Z,43.22
2022-08-26T01:58:23.136Z,43.03
2022-08-26T01:58:49.903Z,43.41
2022-08-26T01:59:16.958Z,43.41
2022-08-26T01:59:39.094Z,43.21
2022-08-26T02:00:02.769Z,43.06
2022-08-26T02:00:36.505Z,43.52
2022-08-26T02:00:59.026Z,43.40
2022-08-26T02:01:22.513Z,43.43
2022-08-26T02:01:51.260Z,43.38
2022-08-26T02:02:15.952Z,42.93
2022-08-26T02:02:37.794Z,43.13
2022-08-26T02:03:14.816Z,42.97
2022-08-26T02:03:46.591Z,43.17
2022-08-26T02:04:15.991Z,43.43
2022-08-26T02:04:43.447Z,43.69
2022-08-26T02:05:10.949Z,43.23
2022-08-26T02:05:32.846Z,43.24
2022-08-26T02:05:58.949Z,43.39
2022-08-26T02:06:21.210Z,43.31
2022-08-26T02:06:45.361Z,43.85
2022-08-26T02:07:09.552Z,43.76
2022-08-26T02:07:33.287Z,43.74
2022-08-26T02:07:55.156Z,43.79
2022-08-26T02:08:18.996Z,43.43
2022-08-26T02:08:51.698Z,43.55
2022-08-26T02:09:14.695Z,43.68
2022-08-26T02:09:41.406Z,43.81
2022-08-26T02:10:05.145Z,43.38
2022-08-26T02:10:26.896Z,43.58
2022-08-26T02:10:48.763Z,43.55
2022-08-26T02:11:11.216Z,43.82
2022-08-26T02:11:34.125Z,43.67
2022-08-26T02:12:01.685Z,44.03
2022-08-26T02:12:23.755Z,43.74
2022-08-26T02:12:47.835Z,43.63
2022-08-26T02:13:11.577Z,43.60
2022-08-26T02:13:42.680Z,43.90
2022-08-26T02:14:08.565Z,44.01
2022-08-26T02:14:34.610Z,43.86
2022-08-26T02:14:59.613Z,43.93
2022-08-26T02:15:23.725Z,44.08
2022-08-26T02:15:46.240Z,43.99
2022-08-26T02:16:10.963Z,43.98
2022-08-26T02:16:37.727Z,44.12
2022-08-26T02:17:00.899Z,44.08
2022-08-26T02:17:29.202Z,44.05
2022-08-26T02:17:53.218Z,44.24
2022-08-26T02:18:15.044Z,44.17
2022-08-26T02:18:40.347Z,43.75
2022-08-26T02:19:04.123Z,44.16
2022-08-26T02:19:29.097Z,43.99
2022-08-26T02:19:51.085Z,44.17
2022-08-26T02:20:17.327Z,44.15
2022-08-26T02:20:39.668Z,43.86
2022-08-26T02:21:02.793Z,44.16
2022-08-26T02:21:29.906Z,43.85
2022-08-26T02:21:53.659Z,44.37
2022-08-26T02:22:19.815Z,44.03
2022-08-26T02:22:42.813Z,44.12
2022-08-26T02:23:07.724Z,44.21
2022-08-26T02:23:29.608Z,44.37
2022-08-26T02:23:56.138Z,44.37
2022-08-26T02:24:20.422Z,44.66
2022-08-26T02:24:49.531Z,44.44
2022-08-26T02:25:17.539Z,44.48
2022-08-26T02:25:47.105Z,44.51
2022-08-26T02:26:12.215Z,44.37
2022-08-26T02:26:40.657Z,44.63
2022-08-26T02:27:02.422Z,44.82
2022-08-26T02:27:26.465Z,44.67
2022-08-26T02:27:50.325Z,44.47
2022-08-26T02:28:14.382Z,44.79
2022-08-26T02:28:40.577Z,44.49
2022-08-26T02:29:07.543Z,44.49
2022-08-26T02:29:32.939Z,44.51
2022-08-26T02:29:59.858Z,44.51
2022-08-26T02:30:26.873Z,44.59
2022-08-26T02:30:49.836Z,44.31
2022-08-26T02:31:13.044Z,44.13
2022-08-26T02:31:35.861Z,44.29
2022-08-26T02:31:57.845Z,44.51
2022-08-26T02:32:19.670Z,44.39
2022-08-26T02:32:41.997Z,44.20
2022-08-26T02:33:05.750Z,44.43
2022-08-26T02:33:28.250Z,44.25
2022-08-26T02:33:50.079Z,44.44
2022-08-26T02:34:13.679Z,44.56
2022-08-26T02:34:38.115Z,44.55
2022-08-26T02:35:00.027Z,44.68
2022-08-26T02:35:23.557Z,44.58
2022-08-26T02:35:47.732Z,44.50
2022-08-26T02:36:09.881Z,44.35
2022-08-26T02:36:33.940Z,44.59
2022-08-26T02:36:56.965Z,44.48
2022-08-26T02:37:19.073Z,44.78
2022-08-26T02:37:45.691Z,44.83
2022-08-26T02:38:10.035Z,44.92
2022-08-26T02:38:33.073Z,45.06
2022-08-26T02:38:56.420Z,45.26
2022-08-26T02:39:22.221Z,45.16
2022-08-26T02:39:44.514Z,44.99
2022-08-26T02:40:08.393Z,45.23
2022-08-26T02:40:32.434Z,45.52
2022-08-26T02:40:55.209Z,45.25
2022-08-26T02:41:17.531Z,45.75
2022-08-26T02:41:44.990Z,45.32
2022-08-26T02:42:07.337Z,45.10
2022-08-26T02:42:30.438Z,45.03
2022-08-26T02:42:56.086Z,45.20
2022-08-26T02:43:19.061Z,45.39
2022-08-26T02:43:54.335Z,45.61
2022-08-26T02:44:16.010Z,45.34
2022-08-26T02:44:39.040Z,45.10
2022-08-26T02:45:00.817Z,45.33
2022-08-26T02:45:23.944Z,45.41
2022-08-26T02:45:45.974Z,45.27
2022-08-26T02:46:07.674Z,45.43
2022-08-26T02:46:31.601Z,45.21
2022-08-26T02:46:55.379Z,45.33
2022-08-26T02:47:18.176Z,45.56
2022-08-26T02:47:40.029Z,45.29
2022-08-26T02:48:09.126Z,44.90
2022-08-26T02:48:33.078Z,45.10
2022-08-26T02:48:54.959Z,45.04
2022-08-26T02:49:17.231Z,44.92
2022-08-26T02:49:41.581Z,45.11
2022-08-26T02:50:08.383Z,44.75
2022-08-26T02:50:30.226Z,45.13
2022-08-26T02:50:51.976Z,45.10
2022-08-26T02:51:13.848Z,45.25
2022-08-26T02:51:36.891Z,45.02
2022-08-26T02:52:01.940Z,44.79
2022-08-26T02:52:24.031Z,44.93
2022-08-26T02:52:45.839Z,45.00
2022-08-26T02:53:09.465Z,45.14
2022-08-26T02:53:31.754Z,44.82
2022-08-26T02:53:54.061Z,44.99
2022-08-26T02:54:21.240Z,44.92
2022-08-26T02:54:44.207Z,45.11
2022-08-26T02:55:08.117Z,45.18
2022-08-26T02:55:30.158Z,44.95
2022-08-26T02:55:51.997Z,44.95
2022-08-26T02:56:14.703Z,44.98
2022-08-26T02:56:36.572Z,44.89
2022-08-26T02:56:58.368Z,45.24
2022-08-26T02:57:20.553Z,45.31
2022-08-26T02:57:45.098Z,45.10
2022-08-26T02:58:06.897Z,44.88
2022-08-26T02:58:28.807Z,45.24
2022-08-26T02:58:50.601Z,44.94
2022-08-26T02:59:13.513Z,45.12
2022-08-26T02:59:35.940Z,45.12
2022-08-26T02:59:57.921Z,45.20
2022-08-26T03:00:22.506Z,45.35
2022-08-26T03:00:52.915Z,45.10
2022-08-26T03:01:23.952Z,45.30
2022-08-26T03:01:46.535Z,45.33
2022-08-26T03:02:10.678Z,45.06
2022-08-26T03:02:33.521Z,45.08
2022-08-26T03:02:55.541Z,44.98
2022-08-26T03:03:17.238Z,45.29
2022-08-26T03:03:40.253Z,45.39
2022-08-26T03:04:05.854Z,45.27
2022-08-26T03:04:27.973Z,45.08
2022-08-26T03:04:58.098Z,45.57
2022-08-26T03:05:24.816Z,45.32
2022-08-26T03:05:47.621Z,45.31
2022-08-26T03:06:09.357Z,45.32
2022-08-26T03:06:31.061Z,45.58
2022-08-26T03:06:53.131Z,45.56
2022-08-26T03:07:18.063Z,45.38
2022-08-26T03:07:40.571Z,45.52
2022-08-26T03:08:02.773Z,45.67
2022-08-26T03:08:25.519Z,45.60
2022-08-26T03:08:47.833Z,45.74
2022-08-26T03:09:09.606Z,45.51
2022-08-26T03:09:32.979Z,45.50
2022-08-26T03:09:55.774Z,45.67
2022-08-26T03:10:19.207Z,45.47
2022-08-26T03:10:41.045Z,45.80
2022-08-26T03:11:04.266Z,45.80
2022-08-26T03:11:32.258Z,45.62
2022-08-26T03:11:55.297Z,45.42
2022-08-26T03:12:17.278Z,45.38
2022-08-26T03:12:41.895Z,45.44
2022-08-26T03:13:05.190Z,45.52
2022-08-26T03:13:27.084Z,45.41
2022-08-26T03:13:49.449Z,45.70
2022-08-26T03:14:13.157Z,45.64
2022-08-26T03:14:34.912Z,45.59
2022-08-26T03:14:56.724Z,45.84
2022-08-26T03:15:19.829Z,46.00
2022-08-26T03:15:42.770Z,45.98
2022-08-26T03:16:05.402Z,46.22
2022-08-26T03:16:32.368Z,46.15
2022-08-26T03:16:54.670Z,46.07
2022-08-26T03:17:16.404Z,45.98
2022-08-26T03:17:39.157Z,46.13
2022-08-26T03:18:02.482Z,46.40
2022-08-26T03:18:24.192Z,46.36
2022-08-26T03:18:47.031Z,46.10
2022-08-26T03:19:15.188Z,46.27
2022-08-26T03:19:39.688Z,46.36
2022-08-26T03:20:04.221Z,46.22
2022-08-26T03:20:25.968Z,46.10
2022-08-26T03:20:48.708Z,46.18
2022-08-26T03:21:13.476Z,45.89
2022-08-26T03:21:36.911Z,46.27
2022-08-26T03:21:59.647Z,46.18
2022-08-26T03:22:21.611Z,46.34
2022-08-26T03:22:46.158Z,46.20
2022-08-26T03:23:09.049Z,46.27
2022-08-26T03:23:31.193Z,46.23
2022-08-26T03:23:54.189Z,46.29
2022-08-26T03:24:20.669Z,46.16
2022-08-26T03:24:46.224Z,46.14
2022-08-26T03:25:11.451Z,46.05
2022-08-26T03:25:33.284Z,46.09
2022-08-26T03:25:55.960Z,46.12
2022-08-26T03:26:17.844Z,46.27
2022-08-26T03:26:40.127Z,46.33
2022-08-26T03:27:14.391Z,46.41
2022-08-26T03:27:37.508Z,46.23
2022-08-26T03:27:59.521Z,46.52
2022-08-26T03:28:21.421Z,46.47
2022-08-26T03:28:58.079Z,46.33
2022-08-26T03:29:38.507Z,46.28
2022-08-26T03:30:19.670Z,46.37
2022-08-26T03:30:44.862Z,46.41
2022-08-26T03:31:08.490Z,46.52
2022-08-26T03:31:30.299Z,46.51
2022-08-26T03:31:52.142Z,46.43
2022-08-26T03:32:16.912Z,46.55
2022-08-26T03:32:39.222Z,46.90
2022-08-26T03:33:04.903Z,46.75
2022-08-26T03:33:27.377Z,46.64
2022-08-26T03:33:49.091Z,46.79
2022-08-26T03:34:14.657Z,46.53
2022-08-26T03:34:36.468Z,46.76
2022-08-26T03:34:58.687Z,46.61
2022-08-26T03:35:20.532Z,46.51
2022-08-26T03:35:47.693Z,46.51
2022-08-26T03:36:13.386Z,46.61
2022-08-26T03:36:36.215Z,46.74
2022-08-26T03:36:57.914Z,46.78
2022-08-26T03:37:21.591Z,46.66
2022-08-26T03:37:44.455Z,46.64
2022-08-26T03:38:08.195Z,46.51
2022-08-26T03:38:29.996Z,46.39
2022-08-26T03:38:51.832Z,46.53
2022-08-26T03:39:14.209Z,46.55
2022-08-26T03:39:37.084Z,46.60
2022-08-26T03:40:01.057Z,46.69
2022-08-26T03:40:23.147Z,46.64
2022-08-26T03:40:45.876Z,46.58
2022-08-26T03:41:08.803Z,46.61
2022-08-26T03:41:32.560Z,46.52
2022-08-26T03:41:55.458Z,46.25
2022-08-26T03:42:18.349Z,46.52
2022-08-26T03:42:45.448Z,46.36
2022-08-26T03:43:09.736Z,46.30
2022-08-26T03:43:32.040Z,46.24
2022-08-26T03:43:56.481Z,46.32
2022-08-26T03:44:23.672Z,46.38
2022-08-26T03:44:46.847Z,46.45
2022-08-26T03:45:10.429Z,46.23
2022-08-26T03:45:32.585Z,46.34
2022-08-26T03:45:55.341Z,46.33
2022-08-26T03:46:18.188Z,46.39
2022-08-26T03:46:41.052Z,46.00
2022-08-26T03:47:03.017Z,46.47
2022-08-26T03:47:28.568Z,46.45
2022-08-26T03:47:50.232Z,46.48
2022-08-26T03:48:14.814Z,46.17
2022-08-26T03:48:38.143Z,46.28
2022-08-26T03:49:01.154Z,46.61
2022-08-26T03:49:22.885Z,46.65
2022-08-26T03:49:44.777Z,46.29
2022-08-26T03:50:08.921Z,46.33
2022-08-26T03:50:34.399Z,46.29
2022-08-26T03:50:57.642Z,46.54
2022-08-26T03:51:19.627Z,46.52
2022-08-26T03:51:41.564Z,46.38
2022-08-26T03:52:06.026Z,46.27
2022-08-26T03:52:28.152Z,46.12
2022-08-26T03:52:51.526Z,46.19
2022-08-26T03:53:13.458Z,46.20
2022-08-26T03:53:36.200Z,46.22
2022-08-26T03:54:00.554Z,46.29
2022-08-26T03:54:22.345Z,46.08
2022-08-26T03:54:44.098Z,46.18
2022-08-26T03:55:09.640Z,46.31
2022-08-26T03:55:33.051Z,46.46
2022-08-26T03:55:55.053Z,46.25
2022-08-26T03:56:17.721Z,46.24
2022-08-26T03:56:40.027Z,46.32
2022-08-26T03:57:01.985Z,46.33
2022-08-26T03:57:23.681Z,46.41
2022-08-26T03:57:46.412Z,46.21
2022-08-26T03:58:08.216Z,46.15
2022-08-26T03:58:32.091Z,46.24
2022-08-26T03:58:54.188Z,46.14
2022-08-26T03:59:16.909Z,46.38
2022-08-26T03:59:38.938Z,46.34
2022-08-26T04:00:05.622Z,46.41
2022-08-26T04:00:31.698Z,46.29
2022-08-26T04:00:56.224Z,46.64
2022-08-26T04:01:18.037Z,46.74
2022-08-26T04:01:40.918Z,46.48
2022-08-26T04:02:03.951Z,46.70
2022-08-26T04:02:33.313Z,46.62
2022-08-26T04:02:55.162Z,46.56
2022-08-26T04:03:37.543Z,46.94
2022-08-26T04:04:01.306Z,46.66
2022-08-26T04:04:24.449Z,47.05
2022-08-26T04:04:46.315Z,47.17
2022-08-26T04:05:08.855Z,46.89
2022-08-26T04:05:31.556Z,46.76
2022-08-26T04:05:53.350Z,46.59
2022-08-26T04:06:15.084Z,46.55
2022-08-26T04:06:42.931Z,46.65
2022-08-26T04:07:07.320Z,46.39
2022-08-26T04:07:29.933Z,46.58
2022-08-26T04:07:54.055Z,46.23
2022-08-26T04:08:16.047Z,46.49
2022-08-26T04:08:38.970Z,46.60
2022-08-26T04:09:04.322Z,46.79
2022-08-26T04:09:27.584Z,46.46
2022-08-26T04:09:49.369Z,46.39
2022-08-26T04:10:20.132Z,46.24
2022-08-26T04:10:42.282Z,46.22
2022-08-26T04:11:04.333Z,46.45
2022-08-26T04:11:31.262Z,46.22
2022-08-26T04:11:58.589Z,46.35
2022-08-26T04:12:20.913Z,46.30
2022-08-26T04:12:42.633Z,46.07
2022-08-26T04:13:04.463Z,46.20
2022-08-26T04:13:26.337Z,46.23
2022-08-26T04:13:49.727Z,46.21
2022-08-26T04:14:14.217Z,46.26
2022-08-26T04:14:40.964Z,46.52
2022-08-26T04:15:04.506Z,46.08
2022-08-26T04:15:27.046Z,46.14
2022-08-26T04:15:48.824Z,46.32
2022-08-26T04:16:12.383Z,46.28
2022-08-26T04:16:34.919Z,46.10
2022-08-26T04:16:57.337Z,45.80
2022-08-26T04:17:19.418Z,46.13
2022-08-26T04:17:47.886Z,46.11
2022-08-26T04:18:10.629Z,45.95
2022-08-26T04:18:37.206Z,46.11
2022-08-26T04:18:59.186Z,46.13
2022-08-26T04:19:23.224Z,45.93
2022-08-26T04:19:45.027Z,46.01
2022-08-26T04:20:07.807Z,46.18
2022-08-26T04:20:31.891Z,46.05
2022-08-26T04:20:53.951Z,46.47
2022-08-26T04:21:16.652Z,46.47
2022-08-26T04:21:38.589Z,46.75
2022-08-26T04:22:00.272Z,46.55
2022-08-26T04:22:24.934Z,46.87
2022-08-26T04:22:46.861Z,46.76
2022-08-26T04:23:08.703Z,46.72
2022-08-26T04:23:30.827Z,46.46
2022-08-26T04:23:53.869Z,46.61
2022-08-26T04:24:16.603Z,46.43
2022-08-26T04:24:39.544Z,46.17
2022-08-26T04:25:02.579Z,46.56
2022-08-26T04:25:25.722Z,46.51
2022-08-26T04:25:47.539Z,46.38
2022-08-26T04:26:09.560Z,46.33
2022-08-26T04:26:36.964Z,46.43
2022-08-26T04:27:03.475Z,46.45
2022-08-26T04:27:25.290Z,46.58
2022-08-26T04:27:48.301Z,46.63
2022-08-26T04:28:10.604Z,46.45
2022-08-26T04:28:32.365Z,46.58
2022-08-26T04:28:55.153Z,46.56
2022-08-26T04:29:20.192Z,46.58
2022-08-26T04:29:42.267Z,46.23
2022-08-26T04:30:05.250Z,46.17
2022-08-26T04:30:27.612Z,46.17
2022-08-26T04:30:50.752Z,46.39
2022-08-26T04:31:14.522Z,46.33
2022-08-26T04:31:37.514Z,46.37
2022-08-26T04:32:01.159Z,46.58
2022-08-26T04:32:23.581Z,46.36
2022-08-26T04:32:45.870Z,46.57
2022-08-26T04:33:12.945Z,46.46
2022-08-26T04:33:35.445Z,46.32
2022-08-26T04:34:06.132Z,46.19
2022-08-26T04:34:29.138Z,46.16
2022-08-26T04:34:50.821Z,46.17
2022-08-26T04:35:13.947Z,46.24
2022-08-26T04:35:37.063Z,46.14
2022-08-26T04:36:01.141Z,46.34
2022-08-26T04:36:24.638Z,46.18
2022-08-26T04:36:46.403Z,46.05
2022-08-26T04:37:09.819Z,46.22
2022-08-26T04:37:31.543Z,46.22
2022-08-26T04:37:56.028Z,46.26
2022-08-26T04:38:19.887Z,46.17
2022-08-26T04:38:41.571Z,46.25
2022-08-26T04:39:04.741Z,46.60
2022-08-26T04:39:28.469Z,46.37
2022-08-26T04:39:51.486Z,46.43
2022-08-26T04:40:13.505Z,46.36
2022-08-26T04:40:36.666Z,46.64
2022-08-26T04:41:03.208Z,46.34
2022-08-26T04:41:27.794Z,46.23
2022-08-26T04:41:55.057Z,46.75
2022-08-26T04:42:21.027Z,46.43
2022-08-26T04:42:48.860Z,46.50
2022-08-26T04:43:10.908Z,46.38
2022-08-26T04:43:32.561Z,46.28
2022-08-26T04:43:54.436Z,46.31
2022-08-26T04:44:17.182Z,46.38
2022-08-26T04:44:41.051Z,46.36
2022-08-26T04:45:05.925Z,46.24
2022-08-26T04:45:35.433Z,46.34
2022-08-26T04:45:59.514Z,46.20
2022-08-26T04:46:24.452Z,46.01
2022-08-26T04:46:46.321Z,46.06
2022-08-26T04:47:08.197Z,46.08
2022-08-26T04:47:32.507Z,46.06
2022-08-26T04:47:56.672Z,46.47
2022-08-26T04:48:18.625Z,46.34
2022-08-26T04:48:41.305Z,46.17
2022-08-26T04:49:08.405Z,46.07
2022-08-26T04:49:35.960Z,46.01
2022-08-26T04:49:58.079Z,46.10
2022-08-26T04:50:20.673Z,45.88
2022-08-26T04:50:49.354Z,46.06
2022-08-26T04:51:11.691Z,46.18
2022-08-26T04:51:34.384Z,45.99
2022-08-26T04:51:57.773Z,46.13
2022-08-26T04:52:19.440Z,46.00
2022-08-26T04:52:42.217Z,45.98
2022-08-26T04:53:04.423Z,46.02
2022-08-26T04:53:30.034Z,46.26
2022-08-26T04:53:52.462Z,46.01
2022-08-26T04:54:14.787Z,45.93
2022-08-26T04:54:38.256Z,45.96
2022-08-26T04:55:06.503Z,46.09
2022-08-26T04:55:38.769Z,45.87
2022-08-26T04:56:03.921Z,46.00
2022-08-26T04:56:28.761Z,45.78
2022-08-26T04:56:50.724Z,46.08
2022-08-26T04:57:12.623Z,46.04
2022-08-26T04:57:34.483Z,46.09
2022-08-26T04:57:57.198Z,45.92
2022-08-26T04:58:20.768Z,46.05
2022-08-26T04:58:51.498Z,46.26
2022-08-26T04:59:18.191Z,46.29
2022-08-26T04:59:40.247Z,46.34
2022-08-26T05:00:03.167Z,46.12
2022-08-26T05:00:25.229Z,46.38
2022-08-26T05:00:50.698Z,45.96
2022-08-26T05:01:12.653Z,45.88
2022-08-26T05:01:34.938Z,45.83
2022-08-26T05:02:03.812Z,45.79
2022-08-26T05:02:28.116Z,46.42
2022-08-26T05:02:49.765Z,46.13
2022-08-26T05:03:13.968Z,46.13
2022-08-26T05:03:36.241Z,46.08
2022-08-26T05:03:59.149Z,45.96
2022-08-26T05:04:21.961Z,46.15
2022-08-26T05:04:44.144Z,46.36
2022-08-26T05:05:07.679Z,46.10
2022-08-26T05:05:29.368Z,45.91
2022-08-26T05:05:52.652Z,45.89
2022-08-26T05:06:15.283Z,45.96
2022-08-26T05:06:41.189Z,45.89
2022-08-26T05:07:03.259Z,45.78
2022-08-26T05:07:26.011Z,46.29
2022-08-26T05:07:47.863Z,47.19
2022-08-26T05:08:13.801Z,47.00
2022-08-26T05:08:36.443Z,46.66
2022-08-26T05:08:59.094Z,46.40
2022-08-26T05:09:20.731Z,46.47
2022-08-26T05:09:42.396Z,46.21
2022-08-26T05:10:05.658Z,46.61
2022-08-26T05:10:30.579Z,46.40
2022-08-26T05:10:56.020Z,46.36
2022-08-26T05:11:19.132Z,45.93
2022-08-26T05:11:43.840Z,46.06
2022-08-26T05:12:11.281Z,46.31